Time;durP1;ratioP1;P1;durP2;ratioP2;P2;SDS_P1;SDS_P2;PMS_P1;PMS_P2;Temp;Humidity;BMP_temperature;BMP_pressure;BME280_temperature;BME280_humidity;BME280_pressure;Samples;Min_cycle;Max_cycle;Signal;HPM_P1;HPM_P2
2022/06/06 00:01:22;;;;;;;5.90;5.40;;;26.10;35.30;;;;;;5055285;28;20492;-38
2022/06/06 00:03:48;;;;;;;8.73;5.60;;;26.10;34.90;;;;;;5054953;28;20482;-38
2022/06/06 00:06:18;;;;;;;6.30;5.10;;;26.10;35.10;;;;;;5020774;28;20945;-38
2022/06/06 00:08:44;;;;;;;6.30;5.50;;;26.10;35.10;;;;;;5055111;28;20515;-38
2022/06/06 00:11:11;;;;;;;5.67;4.87;;;26.10;35.40;;;;;;5054936;28;20436;-38
2022/06/06 00:13:40;;;;;;;6.10;5.50;;;26.00;35.50;;;;;;5054665;28;20459;-38
2022/06/06 00:16:06;;;;;;;6.43;5.20;;;26.00;35.30;;;;;;5054528;28;20438;-39
2022/06/06 00:18:33;;;;;;;5.43;4.93;;;25.90;35.00;;;;;;5054863;28;20443;-39
2022/06/06 00:20:59;;;;;;;5.50;5.00;;;25.90;35.20;;;;;;5054686;28;20442;-38
2022/06/06 00:23:25;;;;;;;7.93;6.37;;;25.90;36.00;;;;;;5054853;28;20768;-38
2022/06/06 00:25:53;;;;;;;6.27;5.67;;;25.80;35.50;;;;;;5054630;28;20411;-37
2022/06/06 00:28:19;;;;;;;7.20;5.53;;;25.80;35.70;;;;;;5054708;28;20502;-39
2022/06/06 00:30:45;;;;;;;7.03;5.50;;;25.80;35.60;;;;;;5054388;28;20542;-38
2022/06/06 00:35:57;;;;;;;6.33;5.73;;;25.70;35.70;;;;;;5054566;28;20648;-38
2022/06/06 00:38:23;;;;;;;5.80;5.17;;;25.70;35.80;;;;;;5054377;28;20466;-39
2022/06/06 00:40:49;;;;;;;6.80;6.13;;;25.70;35.90;;;;;;5054217;28;20408;-38
2022/06/06 00:43:17;;;;;;;6.50;5.60;;;25.70;36.10;;;;;;5054333;28;21610;-37
2022/06/06 00:45:49;;;;;;;6.60;5.20;;;25.60;36.20;;;;;;5054081;28;20461;-37
2022/06/06 00:48:32;;;;;;;5.80;5.10;;;25.60;36.40;;;;;;5054026;28;20894;-38
2022/06/06 00:51:08;;;;;;;6.80;4.47;;;25.70;36.70;;;;;;5054149;28;20880;-37
2022/06/06 00:53:51;;;;;;;5.23;4.67;;;25.70;36.70;;;;;;5053933;28;20539;-39
2022/06/06 00:56:38;;;;;;;5.43;4.93;;;25.70;37.00;;;;;;5053905;28;20388;-38
2022/06/06 00:59:09;;;;;;;5.80;5.10;;;25.70;37.10;;;;;;5053893;28;20400;-39
2022/06/06 01:01:36;;;;;;;6.73;5.80;;;25.70;37.00;;;;;;5035412;28;20439;-39
2022/06/06 01:04:04;;;;;;;5.20;4.70;;;25.80;37.20;;;;;;5053879;28;20403;-39
2022/06/06 01:06:35;;;;;;;3.97;3.57;;;25.80;37.10;;;;;;5054020;28;20921;-38
2022/06/06 01:09:02;;;;;;;6.60;4.73;;;25.80;37.20;;;;;;5054042;28;20419;-38
2022/06/06 01:11:29;;;;;;;6.93;4.47;;;25.80;37.40;;;;;;5053682;28;20424;-38
2022/06/06 01:13:56;;;;;;;5.57;4.70;;;25.80;37.40;;;;;;5053524;28;20997;-39
2022/06/06 01:16:38;;;;;;;5.37;4.40;;;25.80;37.60;;;;;;5053510;28;20407;-38
2022/06/06 01:19:42;;;;;;;6.80;5.50;;;25.80;38.30;;;;;;5053512;28;20398;-38
2022/06/06 01:22:30;;;;;;;5.67;4.07;;;25.80;38.30;;;;;;5053410;28;20430;-38
2022/06/06 01:25:17;;;;;;;4.90;4.40;;;25.80;38.50;;;;;;5053213;28;20805;-38
2022/06/06 01:28:10;;;;;;;4.50;4.07;;;25.80;38.50;;;;;;5053469;28;20495;-39
2022/06/06 01:30:42;;;;;;;4.70;3.67;;;25.70;38.80;;;;;;5042454;28;20446;-38
2022/06/06 01:33:14;;;;;;;3.87;3.07;;;25.70;39.30;;;;;;5053061;28;20506;-39
2022/06/06 01:35:43;;;;;;;3.77;3.37;;;25.60;40.80;;;;;;5053128;28;20406;-39
2022/06/06 01:38:11;;;;;;;6.93;4.50;;;25.50;39.60;;;;;;5053160;28;20499;-38
2022/06/06 01:40:48;;;;;;;6.00;3.57;;;25.50;40.80;;;;;;5053013;28;20404;-38
2022/06/06 01:43:18;;;;;;;3.80;2.90;;;25.50;39.80;;;;;;5053145;28;20388;-39
2022/06/06 01:45:58;;;;;;;5.00;4.07;;;25.50;39.90;;;;;;5052871;28;20404;-39
2022/06/06 01:48:27;;;;;;;3.43;2.80;;;25.50;40.00;;;;;;5052967;28;20404;-38
2022/06/06 01:50:53;;;;;;;6.20;3.07;;;25.50;40.00;;;;;;5052777;28;20404;-38
2022/06/06 01:53:22;;;;;;;4.10;2.63;;;25.40;40.10;;;;;;5052885;28;20455;-38
2022/06/06 01:55:50;;;;;;;4.00;3.17;;;25.40;40.00;;;;;;5052920;28;20412;-39
2022/06/06 01:58:26;;;;;;;5.97;2.30;;;25.40;40.50;;;;;;5052789;28;20395;-38
2022/06/06 02:00:52;;;;;;;5.00;2.80;;;25.30;40.40;;;;;;5052863;28;20427;-38
2022/06/06 02:03:18;;;;;;;3.27;2.73;;;25.30;40.70;;;;;;5053014;28;20430;-39
2022/06/06 02:05:45;;;;;;;5.37;2.70;;;25.30;40.60;;;;;;5052544;28;20411;-38
2022/06/06 02:08:11;;;;;;;3.27;2.43;;;25.30;40.50;;;;;;5034650;28;20420;-39
2022/06/06 02:10:38;;;;;;;4.63;2.43;;;25.30;40.50;;;;;;5052455;28;20418;-38
2022/06/06 02:13:04;;;;;;;2.47;2.10;;;25.20;40.70;;;;;;5052960;28;20478;-39
2022/06/06 02:15:30;;;;;;;2.90;2.30;;;25.20;40.80;;;;;;5052379;28;20392;-40
2022/06/06 02:17:57;;;;;;;2.77;2.10;;;25.20;40.80;;;;;;5052501;28;20407;-39
2022/06/06 02:20:26;;;;;;;3.47;2.50;;;25.10;41.10;;;;;;5052764;28;20473;-39
2022/06/06 02:22:53;;;;;;;2.80;1.93;;;25.10;41.10;;;;;;5052268;28;20927;-39
2022/06/06 02:25:20;;;;;;;3.23;2.47;;;25.00;41.10;;;;;;5052458;28;20415;-40
2022/06/06 02:27:46;;;;;;;2.30;1.73;;;25.00;41.20;;;;;;5052309;28;20399;-39
2022/06/06 02:30:24;;;;;;;3.07;1.93;;;25.00;42.20;;;;;;5052375;28;20499;-39
2022/06/06 02:32:50;;;;;;;2.97;2.50;;;24.90;42.30;;;;;;5052192;28;20201;-39
2022/06/06 02:35:22;;;;;;;4.00;2.60;;;25.20;42.40;;;;;;5052132;28;20454;-39
2022/06/06 02:37:49;;;;;;;3.33;1.80;;;24.80;43.30;;;;;;5052348;28;20494;-39
2022/06/06 02:40:17;;;;;;;2.83;1.93;;;24.70;44.10;;;;;;5052189;28;20392;-39
2022/06/06 02:42:43;;;;;;;2.60;1.53;;;24.60;43.80;;;;;;5051928;28;20455;-39
2022/06/06 02:45:09;;;;;;;2.97;2.07;;;24.40;44.70;;;;;;5052061;28;20450;-39
2022/06/06 02:47:36;;;;;;;2.60;1.90;;;24.40;45.80;;;;;;5052070;28;20802;-40
2022/06/06 02:50:05;;;;;;;2.80;1.87;;;24.30;45.40;;;;;;5052077;28;20408;-39
2022/06/06 02:52:31;;;;;;;4.03;2.10;;;24.20;45.50;;;;;;5051962;28;21062;-39
2022/06/06 02:54:57;;;;;;;2.47;1.67;;;24.10;46.50;;;;;;5052030;28;20408;-39
2022/06/06 02:57:23;;;;;;;3.60;1.97;;;24.10;46.30;;;;;;5052238;28;20415;-39
2022/06/06 02:59:50;;;;;;;7.07;2.00;;;24.00;45.90;;;;;;5052002;28;20242;-39
2022/06/06 03:02:16;;;;;;;2.63;1.57;;;24.00;45.80;;;;;;5051956;28;20274;-39
2022/06/06 03:04:42;;;;;;;2.70;2.00;;;24.00;46.90;;;;;;5051800;28;20412;-39
2022/06/06 03:07:27;;;;;;;2.50;1.90;;;24.00;46.50;;;;;;5052010;28;20466;-40
2022/06/06 03:10:15;;;;;;;2.70;1.70;;;24.00;46.70;;;;;;5052004;28;20176;-39
2022/06/06 03:12:56;;;;;;;3.30;2.10;;;23.90;46.90;;;;;;5051913;28;20475;-39
2022/06/06 03:22:18;;;;;;;3.13;2.20;;;23.80;47.30;;;;;;5051979;28;20409;-39
2022/06/06 03:25:16;;;;;;;2.90;2.03;;;23.70;47.50;;;;;;5055471;28;20384;-39
2022/06/06 03:27:52;;;;;;;2.50;1.77;;;23.70;47.80;;;;;;5051330;28;20469;-39
2022/06/06 03:30:41;;;;;;;4.70;2.50;;;23.70;48.10;;;;;;5055775;28;20391;-39
2022/06/06 03:33:29;;;;;;;3.23;2.50;;;23.70;48.60;;;;;;5055570;28;20843;-39
2022/06/06 03:36:09;;;;;;;3.47;1.90;;;23.70;49.00;;;;;;5055419;28;20445;-40
2022/06/06 03:38:49;;;;;;;4.37;2.53;;;23.70;48.90;;;;;;5055550;28;20818;-40
2022/06/06 03:41:21;;;;;;;3.00;2.27;;;23.70;49.00;;;;;;5055423;28;20439;-40
2022/06/06 03:43:59;;;;;;;2.50;2.20;;;23.70;49.20;;;;;;5055638;28;20400;-40
2022/06/06 03:47:03;;;;;;;2.40;2.20;;;23.70;48.90;;;;;;5055363;28;20438;-40
2022/06/06 03:50:00;;;;;;;3.90;2.03;;;23.70;49.20;;;;;;5052208;28;20809;-40
2022/06/06 03:52:44;;;;;;;3.53;1.80;;;23.70;48.90;;;;;;5055108;28;20447;-40
2022/06/06 03:55:15;;;;;;;3.43;2.03;;;23.70;49.10;;;;;;5055111;28;20470;-40
2022/06/06 03:57:45;;;;;;;2.97;2.03;;;23.70;49.20;;;;;;5054975;28;20407;-40
2022/06/06 04:00:13;;;;;;;2.97;2.00;;;23.70;49.50;;;;;;5055040;28;20406;-40
2022/06/06 04:02:41;;;;;;;3.90;2.63;;;23.60;49.60;;;;;;5055070;28;20415;-40
2022/06/06 04:05:10;;;;;;;5.70;2.27;;;23.60;49.40;;;;;;5054742;28;20415;-40
2022/06/06 04:07:36;;;;;;;3.80;2.50;;;23.60;49.50;;;;;;5054857;28;20917;-40
2022/06/06 04:10:04;;;;;;;2.70;1.90;;;23.60;49.50;;;;;;5055000;28;20408;-40
2022/06/06 04:12:36;;;;;;;4.07;2.40;;;23.60;49.40;;;;;;5054760;28;20201;-39
2022/06/06 04:15:10;;;;;;;3.30;1.90;;;23.60;49.70;;;;;;5054696;28;20447;-39
2022/06/06 04:18:09;;;;;;;2.40;1.90;;;23.60;49.90;;;;;;5055262;28;20465;-40
2022/06/06 04:21:05;;;;;;;2.50;1.90;;;23.60;49.80;;;;;;5054746;28;20404;-40
2022/06/06 04:23:53;;;;;;;4.30;2.60;;;23.60;50.70;;;;;;5054662;28;20424;-40
2022/06/06 04:26:36;;;;;;;2.50;2.10;;;23.50;50.00;;;;;;5054437;28;20408;-39
2022/06/06 04:29:20;;;;;;;2.43;2.23;;;23.60;50.20;;;;;;5054497;28;20470;-40
2022/06/06 04:32:24;;;;;;;2.50;2.00;;;23.60;50.50;;;;;;5054692;28;20440;-40
2022/06/06 04:35:07;;;;;;;2.53;1.90;;;23.60;50.40;;;;;;5029481;28;20519;-40
2022/06/06 04:37:50;;;;;;;2.80;2.30;;;23.60;50.50;;;;;;5054312;28;20376;-40
2022/06/06 04:40:54;;;;;;;2.60;2.30;;;23.60;50.50;;;;;;5054407;28;20895;-40
2022/06/06 04:43:40;;;;;;;2.87;1.93;;;23.60;50.60;;;;;;5022887;28;20426;-40
2022/06/06 04:46:09;;;;;;;3.50;2.60;;;23.60;50.60;;;;;;5054142;28;20390;-39
2022/06/06 04:48:36;;;;;;;3.23;2.50;;;23.60;50.90;;;;;;5054094;28;20392;-40
2022/06/06 04:51:04;;;;;;;4.73;2.40;;;23.70;51.00;;;;;;5054020;28;20550;-40
2022/06/06 04:53:32;;;;;;;2.87;2.33;;;23.70;51.00;;;;;;5054037;28;20534;-40
2022/06/06 04:55:59;;;;;;;3.50;2.20;;;23.80;51.10;;;;;;5054126;28;20430;-40
2022/06/06 04:58:31;;;;;;;2.47;1.97;;;23.80;51.00;;;;;;5053924;28;20907;-40
2022/06/06 05:01:00;;;;;;;4.03;2.73;;;23.80;51.00;;;;;;5053907;28;20427;-39
2022/06/06 05:03:26;;;;;;;2.60;2.10;;;23.90;51.10;;;;;;5053851;28;20442;-40
2022/06/06 05:06:33;;;;;;;2.80;1.90;;;23.90;51.00;;;;;;5053715;28;20415;-39
2022/06/06 05:09:14;;;;;;;2.43;1.73;;;23.90;51.10;;;;;;5050623;28;20189;-40
2022/06/06 05:12:11;;;;;;;2.80;2.20;;;23.90;51.00;;;;;;5053673;28;20744;-40
2022/06/06 05:14:45;;;;;;;4.57;2.40;;;24.00;51.00;;;;;;5053587;28;20407;-40
2022/06/06 05:17:38;;;;;;;3.90;2.40;;;23.90;50.90;;;;;;5053547;28;20392;-40
2022/06/06 05:20:23;;;;;;;2.87;2.30;;;23.90;50.70;;;;;;5053579;28;20809;-40
2022/06/06 05:23:07;;;;;;;2.77;2.20;;;23.90;50.80;;;;;;5053412;28;20511;-40
2022/06/06 05:25:38;;;;;;;2.90;1.93;;;23.90;50.60;;;;;;5053344;28;20423;-40
2022/06/06 05:28:42;;;;;;;2.60;1.80;;;23.90;50.60;;;;;;5053296;28;20495;-40
2022/06/06 05:31:23;;;;;;;3.03;2.40;;;23.90;50.70;;;;;;5051531;28;20483;-40
2022/06/06 05:34:07;;;;;;;2.87;2.00;;;23.80;50.60;;;;;;5053341;28;20540;-40
2022/06/06 05:36:49;;;;;;;2.80;2.50;;;23.80;50.60;;;;;;5053272;28;20388;-40
2022/06/06 05:39:34;;;;;;;2.70;2.00;;;23.80;50.60;;;;;;5053208;28;20400;-40
2022/06/06 05:42:22;;;;;;;3.47;2.20;;;23.80;50.70;;;;;;5053048;28;20530;-40
2022/06/06 05:45:27;;;;;;;3.00;2.40;;;23.90;50.70;;;;;;5052971;28;20384;-40
2022/06/06 05:47:59;;;;;;;3.73;2.40;;;24.00;50.70;;;;;;4991647;28;20444;-40
2022/06/06 05:50:40;;;;;;;4.03;2.10;;;24.00;50.60;;;;;;4991848;28;20740;-40
2022/06/06 05:53:06;;;;;;;3.07;1.93;;;24.10;50.70;;;;;;4991227;28;20462;-40
2022/06/06 05:55:38;;;;;;;2.30;2.00;;;24.20;50.60;;;;;;4991084;28;20506;-40
2022/06/06 05:58:24;;;;;;;2.40;1.90;;;24.30;50.80;;;;;;4991254;28;20171;-39
2022/06/06 06:01:18;;;;;;;2.50;2.00;;;24.40;50.40;;;;;;4990291;28;20414;-40
2022/06/06 06:04:02;;;;;;;3.03;1.53;;;24.40;50.40;;;;;;4991151;28;20407;-40
2022/06/06 06:06:52;;;;;;;2.93;2.27;;;24.50;50.80;;;;;;4991106;28;20415;-40
2022/06/06 06:09:35;;;;;;;2.60;2.20;;;24.50;50.40;;;;;;4991103;28;20417;-40
2022/06/06 06:12:21;;;;;;;2.93;1.93;;;24.60;49.90;;;;;;4990931;28;20430;-40
2022/06/06 06:14:54;;;;;;;3.40;2.27;;;24.70;50.40;;;;;;4990862;28;20751;-40
2022/06/06 06:17:28;;;;;;;2.40;1.90;;;24.90;50.10;;;;;;4990880;28;20418;-39
2022/06/06 06:20:02;;;;;;;2.43;1.97;;;25.00;50.20;;;;;;5052515;28;20920;-40
2022/06/06 06:22:34;;;;;;;2.37;1.87;;;25.00;49.00;;;;;;5052585;28;20423;-40
2022/06/06 06:25:02;;;;;;;4.53;2.13;;;25.00;49.10;;;;;;5052323;28;20478;-38
2022/06/06 06:27:31;;;;;;;2.83;2.00;;;25.10;48.30;;;;;;5052484;28;20419;-38
2022/06/06 06:29:57;;;;;;;3.80;2.70;;;25.10;47.70;;;;;;5052407;28;20408;-39
2022/06/06 06:32:50;;;;;;;2.47;2.07;;;25.10;47.50;;;;;;5052426;28;20827;-38
2022/06/06 06:35:46;;;;;;;2.50;1.73;;;25.10;47.90;;;;;;5052047;28;20400;-39
2022/06/06 06:38:34;;;;;;;2.30;1.40;;;25.20;47.40;;;;;;5052508;28;20390;-39
2022/06/06 06:41:10;;;;;;;3.60;1.50;;;25.20;47.50;;;;;;5052020;28;20469;-38
2022/06/06 06:43:42;;;;;;;2.33;1.57;;;25.10;46.20;;;;;;5052125;28;20411;-38
2022/06/06 06:46:14;;;;;;;3.07;1.77;;;25.10;45.80;;;;;;5052066;28;20385;-39
2022/06/06 06:48:45;;;;;;;2.70;1.60;;;25.20;45.90;;;;;;5052225;28;20478;-38
2022/06/06 06:51:43;;;;;;;2.30;1.60;;;25.40;46.40;;;;;;5051982;28;20428;-39
2022/06/06 06:54:30;;;;;;;2.37;1.40;;;25.60;45.70;;;;;;5052030;28;20439;-38
2022/06/06 06:57:12;;;;;;;2.63;2.07;;;25.70;44.80;;;;;;5051848;28;20403;-39
2022/06/06 06:59:47;;;;;;;5.13;1.90;;;25.70;44.90;;;;;;5051722;28;20921;-38
2022/06/06 07:08:40;;;;;;;1.93;1.17;;;25.70;44.30;;;;;;5051759;28;20887;-39
2022/06/06 07:11:29;;;;;;;2.53;1.50;;;25.70;44.30;;;;;;5051898;28;20422;-38
2022/06/06 07:14:25;;;;;;;2.50;1.50;;;25.80;44.70;;;;;;5051995;28;20541;-38
2022/06/06 07:16:56;;;;;;;1.90;1.17;;;25.80;43.20;;;;;;5051706;28;20395;-38
2022/06/06 07:19:48;;;;;;;2.47;1.50;;;25.80;43.50;;;;;;5051877;28;20404;-38
2022/06/06 07:22:16;;;;;;;2.53;1.50;;;25.80;43.70;;;;;;5043360;28;20444;-38
2022/06/06 07:24:43;;;;;;;2.03;1.53;;;25.90;43.90;;;;;;5051704;28;20403;-38
2022/06/06 07:27:10;;;;;;;2.17;1.60;;;26.00;44.00;;;;;;5051640;28;20403;-38
2022/06/06 07:29:37;;;;;;;3.00;1.50;;;26.10;43.70;;;;;;5051657;28;21221;-38
2022/06/06 07:32:16;;;;;;;2.20;1.53;;;26.20;43.60;;;;;;5051806;28;20514;-39
2022/06/06 07:35:08;;;;;;;2.03;1.27;;;26.30;43.50;;;;;;5051527;28;20415;-38
2022/06/06 07:37:51;;;;;;;2.10;1.50;;;26.30;43.20;;;;;;5051405;28;20904;-38
2022/06/06 07:40:56;;;;;;;2.83;1.40;;;26.30;42.70;;;;;;5051905;28;20396;-39
2022/06/06 07:43:35;;;;;;;1.97;1.40;;;26.40;42.60;;;;;;5050976;28;20853;-39
2022/06/06 07:46:33;;;;;;;2.27;1.60;;;26.50;43.00;;;;;;5033538;28;20456;-38
2022/06/06 07:49:51;;;;;;;3.30;2.00;;;26.60;42.30;;;;;;5051419;28;20396;-38
2022/06/06 07:52:19;;;;;;;2.10;1.90;;;26.70;42.10;;;;;;5033666;28;20439;-38
2022/06/06 07:55:16;;;;;;;2.30;1.63;;;26.70;42.10;;;;;;5051521;28;20442;-38
2022/06/06 07:57:56;;;;;;;2.43;1.53;;;26.90;42.40;;;;;;5051497;28;20392;-39
2022/06/06 08:00:28;;;;;;;2.50;1.67;;;27.00;42.10;;;;;;5051314;28;20441;-38
2022/06/06 08:03:19;;;;;;;2.60;1.63;;;27.00;41.70;;;;;;5051295;28;20923;-38
2022/06/06 08:05:50;;;;;;;2.80;1.90;;;27.00;42.10;;;;;;5051336;28;20419;-38
2022/06/06 08:08:40;;;;;;;2.00;1.40;;;27.20;41.80;;;;;;5051238;28;20449;-39
2022/06/06 08:11:25;;;;;;;2.10;1.80;;;27.40;42.20;;;;;;5036800;28;20463;-39
2022/06/06 08:13:58;;;;;;;2.20;1.57;;;27.40;40.80;;;;;;5054805;28;20451;-38
2022/06/06 08:16:39;;;;;;;3.90;1.77;;;27.40;40.20;;;;;;5054949;28;20403;-38
2022/06/06 08:19:14;;;;;;;2.27;1.87;;;27.40;40.00;;;;;;5054721;28;20399;-39
2022/06/06 08:21:47;;;;;;;2.83;1.40;;;27.50;40.60;;;;;;5054595;28;20473;-39
2022/06/06 08:24:36;;;;;;;2.67;1.87;;;27.60;40.00;;;;;;5054624;28;20767;-38
2022/06/06 08:27:06;;;;;;;3.57;1.20;;;27.70;40.40;;;;;;5054572;28;20480;-39
2022/06/06 08:29:35;;;;;;;2.77;1.60;;;27.70;40.20;;;;;;5054543;28;20404;-39
2022/06/06 08:32:01;;;;;;;2.20;1.77;;;27.70;39.60;;;;;;5054420;28;20434;-38
2022/06/06 08:34:27;;;;;;;3.03;1.80;;;27.60;39.60;;;;;;5054292;28;20807;-39
2022/06/06 08:36:58;;;;;;;2.03;1.40;;;27.70;39.30;;;;;;5054577;28;20404;-39
2022/06/06 08:39:30;;;;;;;3.20;1.73;;;27.80;40.00;;;;;;5054491;28;20176;-38
2022/06/06 08:42:21;;;;;;;2.90;1.73;;;27.80;39.00;;;;;;5054944;28;20466;-38
2022/06/06 08:44:50;;;;;;;2.30;1.43;;;27.80;38.60;;;;;;5057914;28;20858;-38
2022/06/06 08:47:32;;;;;;;2.10;1.40;;;27.60;38.60;;;;;;5058154;28;20527;-39
2022/06/06 08:50:45;;;;;;;4.03;1.93;;;27.50;38.30;;;;;;5054260;28;20399;-38
2022/06/06 08:53:48;;;;;;;2.13;1.60;;;27.70;39.30;;;;;;5026879;28;20467;-38
2022/06/06 08:56:33;;;;;;;1.97;1.33;;;27.90;38.20;;;;;;5054062;28;20737;-38
2022/06/06 08:59:12;;;;;;;2.40;1.60;;;28.00;38.50;;;;;;5053899;28;20431;-38
2022/06/06 09:02:12;;;;;;;2.37;1.50;;;28.20;38.60;;;;;;5053970;28;20506;-38
2022/06/06 09:04:59;;;;;;;2.63;1.90;;;28.30;37.00;;;;;;5035939;28;21006;-38
2022/06/06 09:08:00;;;;;;;2.07;1.37;;;28.30;36.50;;;;;;5053981;28;20808;-39
2022/06/06 09:10:50;;;;;;;3.80;2.07;;;28.30;36.80;;;;;;5053995;28;20399;-38
2022/06/06 09:13:36;;;;;;;1.80;1.10;;;28.40;37.20;;;;;;5053830;28;20443;-39
2022/06/06 09:16:40;;;;;;;2.20;1.50;;;28.60;37.20;;;;;;5053790;28;20483;-38
2022/06/06 09:19:44;;;;;;;2.30;1.50;;;28.70;34.70;;;;;;5052945;28;20446;-38
2022/06/06 09:22:25;;;;;;;5.00;1.23;;;28.70;35.50;;;;;;5053120;28;20442;-38
2022/06/06 09:25:17;;;;;;;2.10;1.33;;;28.70;34.90;;;;;;5053463;28;20388;-38
2022/06/06 09:28:18;;;;;;;2.07;1.60;;;28.70;35.20;;;;;;5053337;28;20399;-38
2022/06/06 09:31:04;;;;;;;2.20;1.30;;;28.80;35.60;;;;;;5053580;28;20449;-39
2022/06/06 09:34:08;;;;;;;2.13;1.50;;;29.00;35.70;;;;;;5052799;28;20467;-39
2022/06/06 09:36:38;;;;;;;4.60;1.30;;;29.10;35.40;;;;;;5053289;28;20443;-39
2022/06/06 09:39:32;;;;;;;2.00;1.27;;;29.30;35.00;;;;;;5035362;28;20408;-39
2022/06/06 09:42:24;;;;;;;2.40;1.50;;;29.30;34.40;;;;;;5053114;28;20443;-39
2022/06/06 09:44:59;;;;;;;2.47;1.57;;;29.30;33.10;;;;;;5053084;28;20538;-38
2022/06/06 09:48:02;;;;;;;1.90;1.30;;;29.20;34.70;;;;;;5053173;28;20410;-38
2022/06/06 09:51:09;;;;;;;2.97;2.00;;;29.00;35.30;;;;;;5053079;28;20422;-39
2022/06/06 10:00:20;;;;;;;3.20;1.80;;;29.00;36.00;;;;;;5053449;28;20498;-39
2022/06/06 10:03:17;;;;;;;2.10;1.30;;;29.20;35.40;;;;;;5053226;28;20832;-38
2022/06/06 10:06:08;;;;;;;2.43;1.93;;;29.40;34.30;;;;;;5052783;28;20470;-39
2022/06/06 10:08:51;;;;;;;2.27;1.10;;;29.70;35.40;;;;;;5052971;28;20864;-38
2022/06/06 10:11:51;;;;;;;2.30;1.70;;;29.70;34.40;;;;;;5053206;28;20505;-39
2022/06/06 10:14:26;;;;;;;2.70;1.50;;;29.50;34.00;;;;;;5052705;28;20914;-39
2022/06/06 10:17:31;;;;;;;2.40;1.97;;;29.50;33.90;;;;;;5052709;28;20470;-39
2022/06/06 10:20:31;;;;;;;2.20;1.47;;;29.50;32.90;;;;;;5052694;28;20399;-39
2022/06/06 10:23:15;;;;;;;2.20;1.57;;;29.50;33.80;;;;;;5052891;28;20424;-38
2022/06/06 10:26:09;;;;;;;2.10;1.20;;;29.50;33.70;;;;;;5052603;28;20900;-39
2022/06/06 10:29:03;;;;;;;2.50;1.50;;;29.70;33.70;;;;;;5052975;28;20561;-39
2022/06/06 10:31:50;;;;;;;6.13;1.50;;;29.90;34.30;;;;;;5053283;28;20477;-39
2022/06/06 10:34:55;;;;;;;3.37;1.60;;;30.10;34.00;;;;;;5052455;28;20459;-39
2022/06/06 10:37:59;;;;;;;2.20;1.30;;;30.30;32.30;;;;;;5053085;28;20408;-39
2022/06/06 10:40:28;;;;;;;2.10;1.60;;;30.50;32.80;;;;;;4972418;28;20422;-39
2022/06/06 10:42:57;;;;;;;2.30;1.10;;;30.60;32.40;;;;;;4972183;28;20491;-39
2022/06/06 10:45:53;;;;;;;2.23;1.47;;;30.60;31.30;;;;;;4971926;28;20505;-39
2022/06/06 10:48:31;;;;;;;2.50;1.90;;;30.40;31.20;;;;;;4971859;28;20519;-39
2022/06/06 10:51:37;;;;;;;1.83;1.20;;;30.30;32.30;;;;;;4971972;28;20419;-39
2022/06/06 10:54:29;;;;;;;2.03;1.20;;;30.40;32.90;;;;;;4971940;28;20714;-39
2022/06/06 10:57:16;;;;;;;2.10;1.40;;;30.60;33.70;;;;;;4945090;28;20419;-39
2022/06/06 11:00:11;;;;;;;1.80;1.20;;;30.90;32.50;;;;;;4971938;28;20411;-38
2022/06/06 11:02:49;;;;;;;2.90;1.53;;;30.90;31.70;;;;;;4971651;28;20509;-40
2022/06/06 11:05:41;;;;;;;2.20;1.53;;;31.00;32.20;;;;;;4970872;28;20777;-41
2022/06/06 11:08:39;;;;;;;2.00;1.20;;;31.00;32.90;;;;;;4970875;28;20431;-40
2022/06/06 11:11:25;;;;;;;1.97;1.30;;;31.30;32.20;;;;;;5007598;28;20523;-40
2022/06/06 11:14:12;;;;;;;2.40;1.73;;;31.40;32.60;;;;;;5051708;28;20978;-40
2022/06/06 11:17:12;;;;;;;2.10;1.30;;;31.40;31.70;;;;;;5051863;28;20380;-40
2022/06/06 11:20:02;;;;;;;2.43;1.63;;;31.40;31.10;;;;;;5051869;28;20446;-40
2022/06/06 11:22:51;;;;;;;2.03;1.43;;;31.40;31.10;;;;;;5052276;28;20426;-39
2022/06/06 11:25:19;;;;;;;1.77;0.90;;;31.50;31.80;;;;;;5051846;28;20412;-41
2022/06/06 11:28:00;;;;;;;2.33;1.63;;;31.50;30.80;;;;;;5052709;28;20413;-41
2022/06/06 11:30:38;;;;;;;2.20;1.53;;;31.50;30.50;;;;;;5052210;28;20521;-40
2022/06/06 11:33:19;;;;;;;3.33;3.00;;;31.70;31.40;;;;;;5033566;28;20464;-40
2022/06/06 11:36:16;;;;;;;5.83;4.73;;;31.80;30.60;;;;;;5051693;28;20404;-40
2022/06/06 11:39:12;;;;;;;2.60;1.40;;;31.80;30.40;;;;;;5051470;28;20988;-40
2022/06/06 11:42:04;;;;;;;2.97;1.87;;;31.70;28.80;;;;;;5051345;28;20447;-40
2022/06/06 11:44:48;;;;;;;6.53;2.13;;;31.50;30.70;;;;;;5052983;28;20464;-40
2022/06/06 11:47:36;;;;;;;2.43;1.60;;;31.50;31.20;;;;;;5055418;28;21226;-40
2022/06/06 11:50:05;;;;;;;6.10;3.07;;;31.40;31.20;;;;;;5055699;28;20411;-40
2022/06/06 11:53:02;;;;;;;38.67;26.30;;;31.40;31.10;;;;;;5055379;28;20504;-40
2022/06/06 11:55:37;;;;;;;7.83;6.10;;;31.50;30.90;;;;;;5055138;28;20752;-40
2022/06/06 11:58:32;;;;;;;3.03;2.17;;;31.60;31.10;;;;;;5055014;28;20860;-41
2022/06/06 12:01:00;;;;;;;2.03;1.30;;;31.70;31.10;;;;;;5054997;28;20531;-40
2022/06/06 12:03:41;;;;;;;3.63;2.57;;;31.80;30.80;;;;;;5055134;28;20407;-41
2022/06/06 12:06:46;;;;;;;3.13;1.70;;;31.90;29.10;;;;;;5055217;28;20384;-40
2022/06/06 12:09:17;;;;;;;2.90;1.63;;;31.90;29.30;;;;;;5055200;28;20407;-40
2022/06/06 12:12:02;;;;;;;2.80;1.77;;;31.90;30.10;;;;;;5054938;28;20411;-41
2022/06/06 12:14:44;;;;;;;2.47;1.70;;;31.80;29.90;;;;;;5054896;28;20447;-41
2022/06/06 12:17:35;;;;;;;1.90;1.20;;;31.70;30.20;;;;;;5054642;28;20411;-40
2022/06/06 12:20:32;;;;;;;3.80;1.70;;;31.70;30.10;;;;;;5054807;28;20399;-40
2022/06/06 12:23:00;;;;;;;2.53;1.67;;;31.60;29.80;;;;;;5055022;28;20426;-40
2022/06/06 12:25:36;;;;;;;1.87;1.33;;;31.70;30.40;;;;;;5054558;28;20521;-41
2022/06/06 12:28:20;;;;;;;2.00;1.30;;;31.80;29.90;;;;;;5054506;28;20936;-41
2022/06/06 12:30:59;;;;;;;2.83;2.03;;;32.10;29.60;;;;;;5054473;28;20486;-41
2022/06/06 12:33:41;;;;;;;2.10;1.50;;;32.00;29.40;;;;;;5054451;28;20439;-41
2022/06/06 12:36:20;;;;;;;2.70;1.70;;;32.00;29.90;;;;;;5054656;28;20384;-40
2022/06/06 12:39:07;;;;;;;2.53;1.40;;;32.00;29.70;;;;;;5054488;28;20459;-40
2022/06/06 12:41:37;;;;;;;1.90;1.40;;;31.80;29.50;;;;;;5054181;28;20443;-40
2022/06/06 12:44:26;;;;;;;2.10;1.33;;;31.70;30.00;;;;;;5054031;28;20422;-41
2022/06/06 12:47:14;;;;;;;2.43;1.40;;;31.70;30.40;;;;;;5054211;28;20912;-40
2022/06/06 12:50:14;;;;;;;2.40;1.60;;;31.80;30.10;;;;;;5054277;28;20432;-40
2022/06/06 12:53:07;;;;;;;2.43;1.60;;;31.80;29.10;;;;;;5054077;28;20501;-40
2022/06/06 12:58:44;;;;;;;2.17;1.10;;;31.80;29.30;;;;;;5053946;28;20410;-40
2022/06/06 13:01:39;;;;;;;3.53;1.97;;;31.70;28.90;;;;;;5054168;28;20577;-41
2022/06/06 13:04:41;;;;;;;2.13;1.40;;;31.70;27.00;;;;;;5053785;28;20400;-40
2022/06/06 13:07:36;;;;;;;3.40;1.50;;;31.70;28.40;;;;;;5053684;28;20420;-40
2022/06/06 13:10:29;;;;;;;1.70;1.10;;;31.80;28.10;;;;;;5054149;28;20399;-40
2022/06/06 13:13:18;;;;;;;2.90;1.93;;;31.90;27.50;;;;;;5022652;28;20470;-40
2022/06/06 13:16:19;;;;;;;2.70;1.70;;;31.90;27.20;;;;;;5053750;28;20396;-40
2022/06/06 13:19:03;;;;;;;1.80;1.20;;;31.90;27.90;;;;;;4991909;28;20410;-40
2022/06/06 13:22:23;;;;;;;2.03;1.40;;;32.10;29.50;;;;;;5048270;28;20787;-40
2022/06/06 13:25:10;;;;;;;2.43;1.90;;;32.20;28.20;;;;;;4991914;28;20423;-40
2022/06/06 13:27:51;;;;;;;3.17;1.30;;;32.30;25.50;;;;;;5049403;28;20412;-40
2022/06/06 13:30:18;;;;;;;3.00;2.00;;;32.40;27.80;;;;;;5053453;28;20490;-40
2022/06/06 13:33:21;;;;;;;3.33;1.53;;;32.40;28.20;;;;;;5053188;28;20517;-40
2022/06/06 13:36:06;;;;;;;2.13;1.47;;;32.50;27.70;;;;;;5053531;28;20495;-40
2022/06/06 13:38:50;;;;;;;1.80;1.30;;;32.40;25.70;;;;;;5056303;28;20392;-40
2022/06/06 13:41:54;;;;;;;1.83;1.27;;;32.40;26.20;;;;;;5054428;28;20475;-40
2022/06/06 13:44:41;;;;;;;2.10;1.53;;;32.50;27.60;;;;;;5043472;28;20416;-40
2022/06/06 13:47:14;;;;;;;2.43;1.40;;;32.40;28.00;;;;;;5053105;28;20549;-40
2022/06/06 13:49:56;;;;;;;2.90;1.53;;;32.30;26.80;;;;;;5053335;28;20400;-40
2022/06/06 13:52:44;;;;;;;2.30;1.40;;;32.10;27.30;;;;;;5052916;28;20427;-40
2022/06/06 13:55:22;;;;;;;2.63;1.97;;;32.20;28.50;;;;;;5052921;28;20400;-40
2022/06/06 13:58:36;;;;;;;2.23;1.23;;;32.40;28.20;;;;;;5053083;28;20427;-40
2022/06/06 14:01:26;;;;;;;2.50;1.53;;;32.40;27.20;;;;;;5027358;28;21024;-40
2022/06/06 14:03:58;;;;;;;2.40;1.57;;;32.40;27.10;;;;;;5035488;28;20928;-40
2022/06/06 14:06:26;;;;;;;2.80;1.90;;;32.60;27.40;;;;;;5052803;28;20412;-40
2022/06/06 14:08:57;;;;;;;2.33;1.50;;;32.70;25.20;;;;;;5052463;28;20408;-40
2022/06/06 14:12:03;;;;;;;2.43;2.23;;;32.70;23.10;;;;;;5052535;28;20428;-40
2022/06/06 14:14:31;;;;;;;2.20;1.40;;;32.60;24.60;;;;;;5052996;28;20459;-40
2022/06/06 14:17:01;;;;;;;2.07;1.50;;;32.50;24.60;;;;;;5052462;28;20903;-40
2022/06/06 14:19:46;;;;;;;3.67;1.97;;;32.50;25.30;;;;;;5052588;28;20400;-40
2022/06/06 14:22:29;;;;;;;2.13;1.27;;;32.40;25.90;;;;;;5052686;28;20427;-40
2022/06/06 14:24:56;;;;;;;2.60;1.30;;;32.50;25.60;;;;;;5052411;28;20416;-40